Terminal Aerodrome Forecast
Issued by NWS Pittsburgh, PA

Current Version | Previous Version | Graphics & Text | Print | Product List | Glossary On
Versions: 1 2 3 4 5 6 7 8 9 10 11 12 13 14 15 16 17 18 19 20 21 22 23 24 25 26 27 28 29 30 31 32 33 34 35 36 37 38
000
FTUS41 KPBZ 261800 AAA
TAFPIT
TAF AMD
KPIT 261852Z 2619/2724 04004KT 2SM -SN BR BKN005 OVC015
     FM262000 VRB03KT 4SM -SN OVC015
     FM270100 33003KT P6SM OVC015
     FM270900 VRB03KT 5SM BR OVC015
     FM271600 31007KT 5SM BR OVC020
     FM271700 30008KT P6SM OVC025 PROB30 2717/2721 4SM -SN OVC025=

USA.gov is the U.S. government's official web portal to all federal, state and local government web resources and services.